Time;durP1;ratioP1;P1;durP2;ratioP2;P2;SDS_P1;SDS_P2;PMS_P1;PMS_P2;Temp;Humidity;BMP_temperature;BMP_pressure;BME280_temperature;BME280_humidity;BME280_pressure;Samples;Min_cycle;Max_cycle;Signal;HPM_P1;HPM_P2
2023/10/03 00:01:46;;;;;;;9.00;5.50;;;18.70;99.90;;;19.20;nan;100616.88;4906551;29;20801;-67
2023/10/03 00:04:13;;;;;;;10.37;5.60;;;18.60;99.90;;;19.19;nan;100616.03;4905436;29;21225;-65
2023/10/03 00:06:41;;;;;;;10.37;4.90;;;18.70;99.90;;;19.22;nan;100614.88;4906398;29;20685;-67
2023/10/03 00:09:12;;;;;;;12.27;5.73;;;18.60;99.90;;;19.19;nan;100609.91;4907294;29;20641;-67
2023/10/03 00:11:39;;;;;;;14.07;5.73;;;18.60;99.90;;;19.15;nan;100617.38;4908142;29;20642;-66
2023/10/03 00:14:07;;;;;;;13.00;5.77;;;18.60;99.90;;;19.13;nan;100615.88;4912061;29;20634;-65
2023/10/03 00:16:35;;;;;;;14.13;5.10;;;18.60;99.90;;;19.09;nan;100617.19;4913070;29;20673;-66
2023/10/03 00:19:02;;;;;;;7.60;4.50;;;18.50;99.90;;;19.04;nan;100609.75;4915067;29;20642;-65
2023/10/03 00:21:29;;;;;;;8.73;4.57;;;18.50;99.90;;;19.03;nan;100602.00;4927608;29;21208;-67
2023/10/03 00:23:56;;;;;;;10.50;4.73;;;18.50;99.90;;;18.98;nan;100602.50;4914717;29;20637;-67
2023/10/03 00:26:24;;;;;;;11.17;5.30;;;18.40;99.90;;;18.94;nan;100595.03;4914891;29;21260;-67
2023/10/03 00:28:51;;;;;;;12.63;4.90;;;18.40;99.90;;;18.90;nan;100597.19;4916712;29;21238;-68
2023/10/03 00:31:19;;;;;;;8.80;4.17;;;18.30;99.90;;;18.86;nan;100595.06;4913965;29;20753;-67
2023/10/03 00:33:46;;;;;;;12.87;4.30;;;18.30;99.90;;;18.85;nan;100598.66;4916740;29;21188;-66
2023/10/03 00:36:23;;;;;;;14.07;6.00;;;18.30;99.90;;;18.79;nan;100597.53;4916549;29;20672;-67
2023/10/03 00:38:50;;;;;;;10.67;5.00;;;18.20;99.90;;;18.75;nan;100598.00;4914783;29;20649;-65
2023/10/03 00:41:22;;;;;;;8.00;4.60;;;18.20;99.90;;;18.71;nan;100597.53;4915122;29;20660;-67
2023/10/03 00:43:53;;;;;;;9.47;5.20;;;18.20;99.90;;;18.68;nan;100591.72;4915988;29;21207;-68
2023/10/03 00:46:21;;;;;;;8.80;4.97;;;18.10;99.90;;;18.66;nan;100581.31;4915814;29;21321;-65
2023/10/03 00:48:49;;;;;;;7.33;4.00;;;18.10;99.90;;;18.58;nan;100581.31;4917135;29;20657;-66
2023/10/03 00:51:20;;;;;;;13.40;5.00;;;18.00;99.90;;;18.54;nan;100577.34;4915136;29;20642;-67
2023/10/03 00:53:50;;;;;;;9.77;4.57;;;18.00;99.90;;;18.51;nan;100575.00;4916618;29;20626;-66
2023/10/03 00:56:19;;;;;;;11.37;5.23;;;17.90;99.90;;;18.48;nan;100567.41;4930455;29;20673;-67
2023/10/03 00:58:47;;;;;;;8.67;4.47;;;17.90;99.90;;;18.46;nan;100578.13;4912801;29;20649;-65
2023/10/03 01:01:15;;;;;;;15.27;4.77;;;17.90;99.90;;;18.46;nan;100572.03;4929155;29;21008;-64
2023/10/03 01:03:42;;;;;;;8.87;4.80;;;17.90;99.90;;;18.48;nan;100575.34;4910257;29;20658;-66
2023/10/03 01:06:13;;;;;;;8.30;4.47;;;17.90;99.90;;;18.48;nan;100576.16;4905362;29;20680;-66
2023/10/03 01:08:46;;;;;;;13.20;6.07;;;17.90;99.90;;;18.49;nan;100575.19;4924989;29;21188;-67
2023/10/03 01:11:20;;;;;;;11.23;5.77;;;17.90;99.90;;;18.46;nan;100574.69;4917801;29;20647;-67
2023/10/03 01:13:53;;;;;;;10.57;5.13;;;17.90;99.90;;;18.42;nan;100576.78;4913853;29;20716;-67
2023/10/03 01:16:29;;;;;;;11.90;5.30;;;17.90;99.90;;;18.42;nan;100565.41;4914402;29;20692;-67
2023/10/03 01:19:07;;;;;;;7.37;4.70;;;17.80;99.90;;;18.41;nan;100563.72;4908824;29;20641;-67
2023/10/03 01:21:34;;;;;;;10.60;5.07;;;17.90;99.90;;;18.40;nan;100557.63;4913662;29;20649;-68
2023/10/03 01:24:07;;;;;;;9.97;5.00;;;17.90;99.90;;;18.41;nan;100558.44;4929111;29;20645;-68
2023/10/03 01:26:34;;;;;;;15.07;5.20;;;17.90;99.90;;;18.34;nan;100547.72;4914048;29;20688;-68
2023/10/03 01:29:02;;;;;;;13.27;5.50;;;17.80;99.90;;;18.33;nan;100553.16;4914159;29;21017;-63
2023/10/03 01:31:29;;;;;;;11.40;5.50;;;17.80;99.90;;;18.32;nan;100548.84;4916590;29;20696;-65
2023/10/03 01:33:56;;;;;;;16.13;6.10;;;17.70;99.90;;;18.32;nan;100538.28;4913291;29;20671;-65
2023/10/03 01:36:23;;;;;;;11.73;5.70;;;17.70;99.90;;;18.28;nan;100537.78;4930134;29;20799;-67
2023/10/03 01:38:50;;;;;;;11.57;5.40;;;17.70;99.90;;;18.27;nan;100538.75;4914962;29;20653;-66
2023/10/03 01:41:18;;;;;;;7.80;4.83;;;17.70;99.90;;;18.26;nan;100539.78;4914357;29;20704;-67
2023/10/03 01:43:45;;;;;;;13.80;5.90;;;17.70;99.90;;;18.27;nan;100538.75;4915426;29;21160;-66
2023/10/03 01:46:12;;;;;;;8.47;5.33;;;17.70;99.90;;;18.28;nan;100540.44;4915484;29;20678;-66
2023/10/03 01:48:41;;;;;;;14.67;5.37;;;17.70;99.90;;;18.29;nan;100514.84;4913967;29;20653;-66
2023/10/03 01:51:09;;;;;;;9.67;4.90;;;17.80;99.90;;;18.26;nan;100512.53;4914128;29;20641;-66
2023/10/03 01:53:38;;;;;;;14.23;5.57;;;17.70;99.90;;;18.24;nan;100504.78;4904010;29;20638;-66
2023/10/03 01:56:06;;;;;;;13.37;5.17;;;17.70;99.90;;;18.23;nan;100499.66;4915978;29;20661;-66
2023/10/03 01:58:34;;;;;;;13.43;6.03;;;17.70;99.90;;;18.25;nan;100495.84;4912857;29;20698;-67
2023/10/03 02:01:01;;;;;;;11.77;5.07;;;17.70;99.90;;;18.21;nan;100493.69;4905346;29;20646;-66
2023/10/03 02:03:29;;;;;;;15.00;6.77;;;17.70;99.90;;;18.21;nan;100493.69;4913483;29;20630;-67
2023/10/03 02:05:56;;;;;;;10.47;4.83;;;17.70;99.90;;;18.22;nan;100490.06;4911225;29;20677;-68
2023/10/03 02:08:25;;;;;;;14.20;6.80;;;17.70;99.90;;;18.22;nan;100487.44;4906979;29;21189;-67
2023/10/03 02:10:53;;;;;;;13.27;6.00;;;17.70;99.90;;;18.23;nan;100487.25;4911600;29;21021;-68
2023/10/03 02:13:23;;;;;;;12.10;4.80;;;17.70;99.90;;;18.22;nan;100485.63;4913760;29;20642;-67
2023/10/03 02:15:53;;;;;;;15.57;6.00;;;17.70;99.90;;;18.22;nan;100488.25;4912213;29;21357;-67
2023/10/03 02:18:21;;;;;;;15.17;6.30;;;17.70;99.90;;;18.22;nan;100480.34;4914898;29;21199;-65
2023/10/03 02:21:01;;;;;;;16.23;6.00;;;17.70;99.90;;;18.21;nan;100486.59;4912677;29;20765;-66
2023/10/03 02:23:28;;;;;;;16.07;6.07;;;17.70;99.90;;;18.23;nan;100484.63;4914078;29;21391;-65
2023/10/03 02:26:07;;;;;;;21.80;8.47;;;17.70;99.90;;;18.22;nan;100492.72;4911917;29;21285;-66
2023/10/03 02:28:34;;;;;;;15.53;6.47;;;17.70;99.90;;;18.24;nan;100491.56;4912747;29;20630;-67
2023/10/03 02:31:07;;;;;;;12.53;6.77;;;17.70;99.90;;;18.24;nan;100494.22;4913975;29;20642;-66
2023/10/03 02:33:40;;;;;;;12.00;5.30;;;17.70;99.90;;;18.23;nan;100487.25;4910654;29;20634;-67
2023/10/03 02:36:09;;;;;;;14.20;6.70;;;17.70;99.90;;;18.22;nan;100487.44;4914660;29;20641;-67
2023/10/03 02:38:37;;;;;;;14.20;6.30;;;17.70;99.90;;;18.21;nan;100483.13;4911718;29;20653;-66
2023/10/03 02:41:09;;;;;;;13.17;5.57;;;17.70;99.90;;;18.20;nan;100477.03;4928655;29;20705;-65
2023/10/03 02:43:38;;;;;;;11.43;6.20;;;17.70;99.90;;;18.12;nan;100478.84;4905468;29;20641;-65
2023/10/03 02:46:12;;;;;;;16.27;5.97;;;17.60;99.90;;;18.07;nan;100466.13;4912913;29;20666;-65
2023/10/03 02:48:43;;;;;;;11.27;5.40;;;17.60;99.90;;;18.02;nan;100467.56;4907047;29;20626;-67
2023/10/03 02:51:12;;;;;;;17.73;5.80;;;17.50;99.90;;;17.99;nan;100465.28;4914402;29;20614;-66
2023/10/03 02:53:39;;;;;;;11.70;5.60;;;17.50;99.90;;;17.95;nan;100451.59;4901251;29;20647;-67
2023/10/03 02:56:08;;;;;;;16.27;6.63;;;17.40;99.90;;;17.96;nan;100447.09;4912051;29;20653;-66
2023/10/03 02:58:35;;;;;;;12.07;4.87;;;17.40;99.90;;;17.91;nan;100452.88;4913536;29;20637;-68
2023/10/03 03:01:03;;;;;;;15.57;6.00;;;17.40;99.90;;;17.89;nan;100456.69;4911763;29;20657;-66
2023/10/03 03:03:31;;;;;;;14.60;6.33;;;17.30;99.90;;;17.90;nan;100463.59;4912860;29;20642;-67
2023/10/03 03:05:59;;;;;;;13.07;5.47;;;17.30;99.90;;;17.93;nan;100450.09;4908749;29;20677;-67
2023/10/03 03:08:29;;;;;;;13.20;5.60;;;17.40;99.90;;;17.98;nan;100455.69;4903419;29;20652;-67
2023/10/03 03:11:03;;;;;;;12.13;5.57;;;17.50;99.90;;;17.98;nan;100447.78;4911720;29;20693;-67
2023/10/03 03:13:32;;;;;;;15.07;5.30;;;17.50;99.90;;;17.96;nan;100445.31;4913121;29;20633;-66
2023/10/03 03:16:04;;;;;;;23.87;6.43;;;17.50;99.90;;;17.95;nan;100450.75;4910421;29;20653;-66
2023/10/03 03:18:40;;;;;;;16.43;6.20;;;17.40;99.90;;;17.89;nan;100454.03;4912234;29;20639;-67
2023/10/03 03:21:15;;;;;;;9.90;4.70;;;17.30;99.90;;;17.91;nan;100452.88;4903750;29;20660;-65
2023/10/03 03:24:08;;;;;;;16.40;6.30;;;17.30;99.90;;;17.91;nan;100449.44;4924770;29;21237;-67
2023/10/03 03:26:39;;;;;;;13.17;6.20;;;17.30;99.90;;;17.93;nan;100447.44;4904400;29;20684;-66
2023/10/03 03:29:20;;;;;;;11.97;5.80;;;17.40;99.90;;;17.99;nan;100457.34;4905648;29;20642;-67
2023/10/03 03:31:52;;;;;;;10.87;5.33;;;17.40;99.90;;;18.04;nan;100445.31;4905835;29;20633;-67
2023/10/03 03:34:20;;;;;;;13.37;6.03;;;17.50;99.90;;;18.10;nan;100444.66;4912715;29;20641;-66
2023/10/03 03:36:49;;;;;;;15.80;6.37;;;17.60;99.90;;;18.12;nan;100445.31;4912930;29;21261;-68
2023/10/03 03:39:20;;;;;;;10.63;4.53;;;17.60;99.90;;;18.13;nan;100459.34;4909668;29;20657;-67
2023/10/03 03:41:48;;;;;;;14.13;5.53;;;17.60;99.90;;;18.16;nan;100456.41;4927393;29;20693;-67
2023/10/03 03:44:18;;;;;;;13.47;6.00;;;17.60;99.90;;;18.17;nan;100452.75;4910150;29;21495;-67
2023/10/03 03:46:46;;;;;;;12.60;5.00;;;17.60;99.90;;;18.16;nan;100438.75;4912729;29;20744;-66
2023/10/03 03:49:13;;;;;;;12.80;5.60;;;17.60;99.90;;;18.18;nan;100435.94;4911873;29;20637;-66
2023/10/03 03:51:40;;;;;;;11.40;5.30;;;17.60;99.90;;;18.17;nan;100440.38;4910585;29;21234;-67
2023/10/03 03:54:12;;;;;;;9.07;5.30;;;17.60;99.90;;;18.16;nan;100449.31;4910927;29;20638;-66
2023/10/03 03:56:40;;;;;;;11.47;5.33;;;17.60;99.90;;;18.18;nan;100439.41;4904926;29;20700;-64
2023/10/03 03:59:08;;;;;;;15.03;5.73;;;17.60;99.90;;;18.21;nan;100436.44;4913344;29;20650;-66
2023/10/03 04:01:35;;;;;;;10.03;5.27;;;17.70;99.90;;;18.24;nan;100430.81;4911375;29;20648;-67
2023/10/03 04:04:04;;;;;;;10.97;5.00;;;17.70;99.90;;;18.25;nan;100436.94;4907397;29;21117;-65
2023/10/03 04:06:32;;;;;;;9.33;5.50;;;17.70;99.90;;;18.27;nan;100419.13;4912307;29;21261;-67
2023/10/03 04:08:59;;;;;;;11.67;5.37;;;17.70;99.90;;;18.29;nan;100430.34;4909869;29;21461;-67
2023/10/03 04:11:34;;;;;;;9.97;4.60;;;17.70;99.90;;;18.28;nan;100426.88;4911618;29;21227;-67
2023/10/03 04:14:04;;;;;;;9.93;4.70;;;17.70;99.90;;;18.30;nan;100435.44;4910082;29;20642;-65
2023/10/03 04:16:38;;;;;;;14.60;5.77;;;17.70;99.90;;;18.32;nan;100430.81;4910501;29;20674;-67
2023/10/03 04:19:06;;;;;;;17.37;5.73;;;17.80;99.90;;;18.39;nan;100423.91;4912542;29;20634;-64
2023/10/03 04:21:33;;;;;;;14.33;4.47;;;17.80;99.90;;;18.40;nan;100427.34;4909142;29;20654;-67
2023/10/03 04:24:00;;;;;;;8.80;3.50;;;17.80;99.90;;;18.45;nan;100431.19;4911390;29;20645;-66
2023/10/03 04:26:28;;;;;;;11.07;4.73;;;17.90;99.90;;;18.44;nan;100429.53;4912237;29;20678;-67
2023/10/03 04:28:55;;;;;;;12.83;5.87;;;17.90;99.90;;;18.48;nan;100428.19;4910070;29;21191;-67
2023/10/03 04:31:22;;;;;;;12.57;5.37;;;17.90;99.90;;;18.49;nan;100439.59;4913839;29;20634;-66
2023/10/03 04:33:49;;;;;;;12.40;5.57;;;17.90;99.90;;;18.49;nan;100435.16;4912255;29;20638;-67
2023/10/03 04:36:17;;;;;;;12.23;4.90;;;17.90;99.90;;;18.51;nan;100437.63;4913013;29;21247;-66
2023/10/03 04:38:44;;;;;;;11.70;5.90;;;17.90;99.90;;;18.52;nan;100434.00;4908111;29;20641;-65
2023/10/03 04:41:11;;;;;;;12.63;5.13;;;18.00;99.90;;;18.54;nan;100430.22;4925877;29;21064;-67
2023/10/03 04:43:39;;;;;;;12.43;4.70;;;18.00;99.90;;;18.54;nan;100432.84;4902092;29;21204;-67
2023/10/03 04:46:08;;;;;;;14.10;5.57;;;18.00;99.90;;;18.57;nan;100429.03;4911209;29;20637;-67
2023/10/03 04:48:37;;;;;;;13.90;5.90;;;18.00;99.90;;;18.57;nan;100421.94;4910819;29;20681;-68
2023/10/03 04:51:05;;;;;;;10.20;5.50;;;18.00;99.90;;;18.57;nan;100427.22;4912542;29;20646;-64
2023/10/03 04:53:32;;;;;;;10.50;5.37;;;18.00;99.90;;;18.59;nan;100427.88;4911879;29;20649;-67
2023/10/03 04:55:59;;;;;;;10.97;4.67;;;18.00;99.90;;;18.62;nan;100420.59;4910457;29;20657;-67
2023/10/03 04:58:26;;;;;;;6.10;3.67;;;18.00;99.90;;;18.63;nan;100415.16;4911284;29;20638;-67
2023/10/03 05:00:53;;;;;;;9.73;4.20;;;18.00;99.90;;;18.63;nan;100419.63;4911764;29;20656;-67
2023/10/03 05:03:22;;;;;;;8.50;5.10;;;18.00;99.90;;;18.62;nan;100416.16;4913571;29;21211;-67
2023/10/03 05:05:49;;;;;;;8.33;4.80;;;18.00;99.90;;;18.62;nan;100405.59;4915470;29;20720;-67
2023/10/03 05:08:18;;;;;;;10.03;4.90;;;18.00;99.90;;;18.66;nan;100412.19;4913827;29;20676;-66
2023/10/03 05:10:46;;;;;;;13.03;5.27;;;18.10;99.90;;;18.69;nan;100408.38;4913617;29;20634;-65
2023/10/03 05:13:13;;;;;;;8.77;4.90;;;18.10;99.90;;;18.72;nan;100408.06;4913771;29;21177;-67
2023/10/03 05:15:41;;;;;;;8.00;4.10;;;18.20;99.90;;;18.74;nan;100412.16;4915098;29;20626;-66
2023/10/03 05:18:08;;;;;;;10.80;4.53;;;18.20;99.90;;;18.76;nan;100414.66;4928364;29;20669;-67
2023/10/03 05:20:37;;;;;;;6.33;3.60;;;18.20;99.90;;;18.76;nan;100407.53;4916649;29;20642;-66
2023/10/03 05:23:05;;;;;;;5.27;2.90;;;18.20;99.90;;;18.78;nan;100407.38;4913483;29;20700;-66
2023/10/03 05:25:42;;;;;;;6.03;3.27;;;18.20;99.90;;;18.83;nan;100412.97;4915751;29;20654;-66
2023/10/03 05:28:13;;;;;;;7.57;4.00;;;18.30;99.90;;;18.86;nan;100417.94;4912020;29;20673;-64
2023/10/03 05:30:40;;;;;;;7.93;4.07;;;18.30;99.90;;;18.91;nan;100423.56;4915229;29;21232;-67
2023/10/03 05:33:07;;;;;;;5.40;2.87;;;18.30;99.90;;;18.98;nan;100416.56;4923087;29;20637;-68
2023/10/03 05:35:35;;;;;;;13.13;4.73;;;18.40;99.90;;;19.05;nan;100425.50;4912771;29;20646;-67
2023/10/03 05:38:08;;;;;;;8.27;2.43;;;18.50;99.90;;;19.12;nan;100416.69;4914770;29;20665;-66
2023/10/03 05:40:35;;;;;;;10.87;4.70;;;18.60;99.90;;;19.20;nan;100418.50;4911635;29;20641;-65
2023/10/03 05:43:04;;;;;;;4.47;2.77;;;18.60;99.90;;;19.30;nan;100417.31;4906534;29;21039;-67
2023/10/03 05:45:37;;;;;;;10.00;4.07;;;18.70;99.90;;;19.38;nan;100421.75;4914940;29;21403;-65
2023/10/03 05:48:04;;;;;;;7.60;3.67;;;18.80;99.90;;;19.52;nan;100423.69;4911244;29;20688;-67
2023/10/03 05:50:34;;;;;;;8.70;2.77;;;18.90;99.90;;;19.62;nan;100420.81;4915604;29;20677;-67
2023/10/03 05:53:02;;;;;;;9.83;4.00;;;19.10;99.90;;;19.75;nan;100423.72;4911798;29;20634;-67
2023/10/03 05:55:29;;;;;;;7.63;3.50;;;19.20;99.90;;;19.91;nan;100429.75;4915633;29;20645;-67
2023/10/03 05:57:56;;;;;;;6.80;3.57;;;19.30;99.90;;;20.03;nan;100423.06;4913450;29;20676;-68
2023/10/03 06:00:23;;;;;;;4.53;3.00;;;19.40;99.90;;;20.24;nan;100418.97;4916047;29;20703;-68
2023/10/03 06:02:50;;;;;;;7.27;3.97;;;19.60;99.90;;;20.50;nan;100430.03;4913462;29;21395;-68
2023/10/03 06:05:18;;;;;;;9.80;3.60;;;19.90;99.90;;;20.89;nan;100431.47;4915979;29;20634;-65
2023/10/03 06:07:45;;;;;;;7.30;3.23;;;20.20;99.90;;;21.32;nan;100437.81;4907721;29;20740;-66
2023/10/03 06:10:16;;;;;;;6.67;3.43;;;20.60;99.90;;;21.75;nan;100445.91;4911719;29;21218;-66
2023/10/03 06:12:44;;;;;;;4.77;2.90;;;21.00;99.90;;;22.21;nan;100439.31;4910613;29;21050;-65
2023/10/03 06:15:14;;;;;;;6.40;3.13;;;21.40;99.90;;;22.53;nan;100436.09;4909521;29;20685;-66
2023/10/03 06:17:42;;;;;;;7.00;2.73;;;21.80;99.90;;;22.62;nan;100445.63;4913034;29;21005;-67
2023/10/03 06:20:14;;;;;;;5.20;3.60;;;21.90;99.90;;;22.55;nan;100452.72;4913898;29;20697;-67
2023/10/03 06:22:41;;;;;;;6.53;2.80;;;21.90;99.90;;;22.56;nan;100456.16;4907837;29;20638;-67
2023/10/03 06:25:09;;;;;;;7.73;3.73;;;21.90;99.90;;;22.53;nan;100451.25;4905198;29;21084;-70
2023/10/03 06:27:37;;;;;;;6.20;2.97;;;21.90;99.90;;;22.50;nan;100456.94;4914180;29;20677;-69
2023/10/03 06:30:06;;;;;;;7.00;3.57;;;21.90;99.90;;;22.53;nan;100465.34;4912471;29;20648;-67
2023/10/03 06:32:34;;;;;;;5.97;2.80;;;21.90;99.90;;;22.58;nan;100464.78;4911006;29;20660;-67
2023/10/03 06:35:02;;;;;;;9.70;3.17;;;21.90;99.90;;;22.66;nan;100465.50;4906920;29;20750;-67
2023/10/03 06:37:29;;;;;;;4.33;3.47;;;22.00;99.90;;;22.79;nan;100462.94;4906444;29;20677;-67
2023/10/03 06:39:56;;;;;;;6.07;2.90;;;22.10;99.90;;;22.99;nan;100455.94;4908367;29;20663;-67
2023/10/03 06:42:25;;;;;;;7.77;3.90;;;22.30;99.90;;;23.42;nan;100463.78;4903889;29;20749;-67
2023/10/03 06:44:52;;;;;;;6.03;3.63;;;22.60;99.90;;;23.91;nan;100451.09;4907461;29;20646;-67
2023/10/03 06:47:20;;;;;;;8.03;4.20;;;23.10;99.90;;;24.65;nan;100454.50;4910579;29;21231;-67
2023/10/03 06:49:49;;;;;;;5.63;3.23;;;24.20;99.90;;;25.42;nan;100451.97;4909709;29;20649;-65
2023/10/03 06:52:16;;;;;;;11.23;3.43;;;24.50;99.90;;;25.69;nan;100455.34;4908294;29;20712;-67
2023/10/03 06:54:43;;;;;;;4.90;3.20;;;24.90;99.90;;;25.52;nan;100444.31;4874688;29;20638;-65
2023/10/03 06:57:10;;;;;;;6.53;3.83;;;24.90;99.90;;;25.44;nan;100439.22;4905690;29;21496;-66
2023/10/03 06:59:38;;;;;;;8.27;4.27;;;24.80;99.90;;;25.80;nan;100450.16;4909494;29;20647;-66
2023/10/03 07:02:05;;;;;;;5.07;3.60;;;25.10;99.90;;;26.15;nan;100438.06;4909111;29;20684;-68
2023/10/03 07:04:32;;;;;;;5.47;3.50;;;25.50;99.90;;;26.85;nan;100449.47;4914023;29;21195;-66
2023/10/03 07:07:03;;;;;;;8.07;4.50;;;26.10;99.90;;;27.44;nan;100454.25;4911856;29;21251;-67
2023/10/03 07:09:31;;;;;;;5.07;3.77;;;26.90;98.70;;;27.90;nan;100461.72;4911151;29;20645;-67
2023/10/03 07:11:58;;;;;;;5.10;3.83;;;27.30;98.00;;;28.43;nan;100457.22;4910415;29;20650;-66
2023/10/03 07:14:26;;;;;;;6.57;3.40;;;27.90;97.00;;;28.94;nan;100468.16;4906461;29;20646;-67
2023/10/03 07:16:53;;;;;;;4.60;3.37;;;28.50;95.60;;;29.62;nan;100465.63;4912178;29;20657;-66
2023/10/03 07:19:21;;;;;;;6.17;3.87;;;29.10;94.70;;;30.24;nan;100469.25;4914389;29;20630;-64
2023/10/03 07:21:48;;;;;;;5.20;4.10;;;29.80;92.90;;;30.82;nan;100463.53;4912051;29;20638;-65
2023/10/03 07:24:15;;;;;;;3.60;3.27;;;30.40;91.70;;;31.47;nan;100458.31;4913027;29;20981;-67
2023/10/03 07:26:42;;;;;;;5.13;3.70;;;31.10;90.30;;;32.37;nan;100473.88;4913723;29;20660;-67
2023/10/03 07:29:09;;;;;;;6.10;4.17;;;31.90;87.40;;;33.04;nan;100474.97;4911599;29;20712;-67
2023/10/03 07:31:36;;;;;;;3.97;3.63;;;32.70;83.00;;;33.61;nan;100480.41;4911638;29;20731;-66
2023/10/03 07:34:04;;;;;;;3.27;2.97;;;33.40;79.30;;;34.17;nan;100476.81;4907144;29;20636;-69
2023/10/03 07:36:31;;;;;;;4.60;4.20;;;33.80;77.50;;;34.58;nan;100491.22;4910203;29;21332;-71
2023/10/03 07:38:58;;;;;;;3.33;3.03;;;34.30;74.80;;;34.70;nan;100482.81;4913561;29;20633;-69
2023/10/03 07:41:27;;;;;;;4.77;4.23;;;34.60;73.00;;;35.08;nan;100487.66;4906529;29;20638;-66
2023/10/03 07:43:54;;;;;;;3.67;3.40;;;34.90;72.00;;;35.85;nan;100485.22;4904470;29;20673;-70
2023/10/03 07:46:25;;;;;;;2.80;2.60;;;35.60;70.10;;;35.99;nan;100501.75;4922789;29;20666;-69
2023/10/03 07:48:53;;;;;;;3.93;3.60;;;35.80;67.80;;;36.42;nan;100502.81;4908453;29;20681;-67
2023/10/03 07:51:26;;;;;;;4.13;3.70;;;36.20;66.70;;;36.58;nan;100505.16;4899153;29;20630;-70
2023/10/03 07:53:55;;;;;;;4.60;3.73;;;36.30;66.00;;;36.78;nan;100489.78;4908648;29;20630;-69
2023/10/03 07:56:30;;;;;;;3.67;3.47;;;36.60;64.00;;;37.04;nan;100494.69;4923862;29;20666;-69
2023/10/03 07:59:02;;;;;;;3.73;3.53;;;36.70;63.70;;;37.41;nan;100495.94;4910109;29;20645;-68
2023/10/03 08:01:32;;;;;;;3.20;3.00;;;37.10;62.70;;;37.28;nan;100500.97;4907417;29;20634;-68
2023/10/03 08:04:07;;;;;;;3.30;3.00;;;37.10;61.50;;;37.35;nan;100495.19;4921391;29;20631;-67
2023/10/03 08:06:36;;;;;;;2.90;2.70;;;37.20;61.40;;;37.32;nan;100498.47;4903813;29;20661;-66
2023/10/03 08:09:03;;;;;;;4.20;3.90;;;37.30;61.00;;;36.65;nan;100499.41;4908526;29;21271;-69
2023/10/03 08:11:31;;;;;;;4.67;3.30;;;36.70;61.10;;;35.91;nan;100496.06;4905540;29;20646;-67
2023/10/03 08:14:00;;;;;;;4.13;3.43;;;35.90;61.30;;;35.26;nan;100483.56;4909407;29;21297;-68
2023/10/03 08:16:28;;;;;;;4.37;3.97;;;35.10;62.60;;;34.76;nan;100485.25;4920801;29;20670;-71
2023/10/03 08:18:57;;;;;;;5.80;4.13;;;34.60;63.60;;;34.35;nan;100491.75;4905061;29;20637;-66
2023/10/03 08:21:28;;;;;;;4.07;2.87;;;34.20;64.10;;;33.63;nan;100486.38;4903706;29;20649;-65
2023/10/03 08:23:57;;;;;;;3.90;3.33;;;33.50;65.00;;;32.65;nan;100487.06;4909179;29;20650;-67
2023/10/03 08:26:25;;;;;;;5.00;3.87;;;32.50;66.40;;;32.04;nan;100486.50;4888913;29;20674;-70
2023/10/03 08:28:59;;;;;;;3.70;3.20;;;31.80;67.60;;;31.93;nan;100481.22;4905323;29;20686;-69
2023/10/03 08:31:27;;;;;;;5.07;3.10;;;31.60;68.60;;;31.87;nan;100480.34;4909981;29;20645;-67
2023/10/03 08:33:57;;;;;;;4.00;3.60;;;31.50;69.10;;;31.94;nan;100483.72;4903075;29;21393;-67
2023/10/03 08:36:28;;;;;;;6.13;4.27;;;31.60;69.00;;;31.88;nan;100486.56;4911008;29;21197;-67
2023/10/03 08:39:04;;;;;;;7.30;4.27;;;31.50;69.10;;;31.60;nan;100492.16;4925789;29;20645;-67
2023/10/03 08:41:47;;;;;;;4.40;4.00;;;31.20;69.70;;;31.02;nan;100481.91;4912430;29;21282;-67
2023/10/03 08:44:15;;;;;;;3.93;3.27;;;30.70;70.60;;;30.17;nan;100483.94;4914019;29;20680;-67
2023/10/03 08:46:55;;;;;;;4.33;2.80;;;29.90;72.00;;;29.69;nan;100484.31;4912096;29;20681;-67
2023/10/03 08:49:28;;;;;;;5.33;3.73;;;29.40;73.40;;;29.88;nan;100493.88;4905780;29;20674;-68
2023/10/03 08:52:01;;;;;;;4.33;3.57;;;29.40;74.20;;;30.10;nan;100513.69;4915908;29;20637;-68
2023/10/03 08:54:36;;;;;;;6.93;4.20;;;29.60;74.10;;;29.98;nan;100521.00;4912126;29;20664;-68
2023/10/03 08:57:04;;;;;;;4.60;3.97;;;29.50;74.50;;;29.64;nan;100517.31;4925749;29;20670;-67
2023/10/03 08:59:32;;;;;;;4.20;2.80;;;29.20;75.10;;;29.31;nan;100524.34;4927785;29;20661;-68
2023/10/03 09:02:08;;;;;;;3.83;3.37;;;28.90;76.10;;;29.02;nan;100526.09;4911828;29;20712;-67
2023/10/03 09:04:39;;;;;;;5.80;4.03;;;28.50;77.00;;;28.81;nan;100532.88;4914371;29;20642;-68
2023/10/03 09:07:09;;;;;;;3.67;3.27;;;28.20;77.90;;;28.59;nan;100539.81;4913858;29;20676;-68
2023/10/03 09:09:41;;;;;;;5.47;3.43;;;28.00;78.90;;;28.41;nan;100532.59;4909090;29;20674;-68
2023/10/03 09:12:09;;;;;;;4.67;4.17;;;27.90;79.90;;;28.28;nan;100523.94;4907633;29;20642;-66
2023/10/03 09:14:38;;;;;;;4.70;3.70;;;27.70;80.50;;;28.19;nan;100538.72;4914463;29;21217;-66
2023/10/03 09:17:06;;;;;;;4.47;4.00;;;27.60;80.80;;;27.93;nan;100539.00;4911800;29;20674;-68
2023/10/03 09:19:45;;;;;;;4.93;3.40;;;27.40;82.20;;;27.83;nan;100542.25;4929442;29;21078;-68
2023/10/03 09:22:16;;;;;;;4.80;3.67;;;27.20;82.30;;;27.71;nan;100532.50;4910039;29;20650;-66
2023/10/03 09:24:46;;;;;;;4.20;3.80;;;27.10;83.00;;;28.24;nan;100530.78;4919684;29;20633;-67
2023/10/03 09:27:17;;;;;;;3.63;3.33;;;27.50;82.80;;;28.97;nan;100532.16;4913745;29;20665;-68
2023/10/03 09:29:49;;;;;;;9.33;3.67;;;28.20;81.30;;;29.26;nan;100526.97;4906838;29;20682;-67
2023/10/03 09:32:19;;;;;;;3.73;3.20;;;28.50;80.30;;;29.21;nan;100532.19;4912458;29;20646;-67
2023/10/03 09:34:57;;;;;;;5.97;3.60;;;28.60;80.40;;;28.94;nan;100534.50;4914640;29;20698;-67
2023/10/03 09:37:30;;;;;;;7.07;3.07;;;28.30;80.90;;;28.65;nan;100530.81;4925459;29;20753;-69
2023/10/03 09:39:59;;;;;;;7.10;4.50;;;28.00;81.40;;;28.34;nan;100533.75;4908482;29;20700;-68
2023/10/03 09:42:27;;;;;;;6.93;4.07;;;27.80;82.10;;;28.01;nan;100534.19;4926589;29;20634;-67
2023/10/03 09:45:00;;;;;;;8.10;4.10;;;27.40;83.10;;;28.01;nan;100531.50;4914055;29;21024;-66
2023/10/03 09:47:30;;;;;;;5.80;3.70;;;27.40;83.90;;;28.03;nan;100542.00;4909188;29;20677;-68
2023/10/03 09:50:06;;;;;;;9.40;3.90;;;27.40;84.20;;;27.87;nan;100550.63;4914137;29;20666;-69
2023/10/03 09:52:37;;;;;;;4.07;3.70;;;27.30;84.80;;;27.69;nan;100554.13;4913520;29;20629;-69
2023/10/03 09:55:41;;;;;;;6.37;3.83;;;27.10;85.10;;;27.58;nan;100561.06;4913511;29;20628;-69
2023/10/03 09:57:59;;;;;;;5.10;3.83;;;27.00;85.70;;;27.42;nan;100550.94;4902818;29;20685;-67
2023/10/03 10:00:40;;;;;;;5.63;3.90;;;26.80;86.20;;;27.28;nan;100554.72;4927082;29;20697;-69
2023/10/03 10:03:19;;;;;;;5.83;3.70;;;26.70;86.60;;;27.17;nan;100554.66;4924189;29;20642;-68
2023/10/03 10:05:53;;;;;;;4.07;3.70;;;26.50;87.30;;;27.09;nan;100547.69;4908313;29;20752;-68
2023/10/03 10:08:29;;;;;;;6.70;4.00;;;26.50;88.10;;;27.03;nan;100547.75;4913616;29;20720;-67
2023/10/03 10:11:07;;;;;;;4.03;3.57;;;26.40;88.10;;;26.90;nan;100554.88;4924774;29;21033;-67
2023/10/03 10:13:44;;;;;;;5.27;4.00;;;26.30;88.50;;;26.89;nan;100555.09;4926390;29;20649;-68
2023/10/03 10:16:16;;;;;;;3.83;3.07;;;26.30;88.90;;;26.87;nan;100555.31;4910334;29;21265;-68
2023/10/03 10:18:46;;;;;;;3.60;3.30;;;26.20;89.10;;;26.87;nan;100563.34;4906674;29;21199;-67
2023/10/03 10:21:26;;;;;;;5.60;3.30;;;26.30;89.40;;;26.98;nan;100561.81;4914598;29;20634;-65
2023/10/03 10:24:11;;;;;;;4.63;3.83;;;26.30;89.50;;;27.39;nan;100548.69;4914220;29;21097;-68
2023/10/03 10:26:39;;;;;;;5.90;3.90;;;26.70;89.30;;;27.82;nan;100554.00;4907049;29;20679;-68
2023/10/03 10:29:08;;;;;;;6.90;3.40;;;27.00;88.70;;;28.03;nan;100552.72;4925473;29;20749;-66
2023/10/03 10:31:44;;;;;;;4.57;3.80;;;27.20;88.20;;;28.05;nan;100556.00;4926155;29;20709;-67
2023/10/03 10:34:35;;;;;;;4.47;1.80;;;27.30;87.50;;;28.01;nan;100560.19;4903559;29;20638;-65